.
WxDataArchive / Data Records for 2015-04-06
2015-04-05 April 2015 2015-04-07

Data Records for Monday, 06 April 2015

Time	Temp	Chill	HIndex	Humid	Dewpt	 Wind 	HiWind	WindDir	Rain 	Barom
-----	----	-----	------	-----	-----	------	------	-------	-----	-----
00:00	40.9	40.9	40.9	56	26.4	0	0	---	0.00	30.070 
00:05	40.8	40.8	40.8	56	26.3	0	0	---	0.00	30.070 
00:10	40.6	40.6	40.6	57	26.6	0	0	---	0.00	30.070 
00:15	40.5	40.5	40.5	57	26.5	0	0	---	0.00	30.066 
00:20	40.5	40.5	40.5	58	26.9	0	0	---	0.00	30.066 
00:25	40.3	40.3	40.3	60	27.5	0	0	---	0.00	30.066 
00:30	40.3	40.3	40.3	60	27.5	0	0	---	0.00	30.068 
00:35	40.1	40.1	40.1	61	27.7	0	0	---	0.00	30.068 
00:40	39.9	39.9	39.9	61	27.6	0	0	---	0.00	30.068 
00:45	39.6	39.6	39.6	62	27.7	0	0	---	0.00	30.070 
00:50	39.5	39.5	39.5	62	27.6	0	0	---	0.00	30.070 
00:55	39.3	39.3	39.3	62	27.4	0	0	---	0.00	30.070 
01:00	39.1	39.1	39.1	62	27.2	0	0	---	0.00	30.071 
01:05	39.1	39.1	39.1	62	27.2	0	0	---	0.00	30.071 
01:10	38.9	38.9	38.9	62	27.0	0	0	---	0.00	30.071 
01:15	38.9	38.9	38.9	61	26.6	0	0	---	0.00	30.073 
01:20	38.9	38.9	38.9	62	27.0	0	0	---	0.00	30.073 
01:25	38.8	38.8	38.8	61	26.5	0	0	---	0.00	30.073 
01:30	38.8	38.8	38.8	61	26.5	0	0	---	0.00	30.075 
01:35	38.8	38.8	38.8	61	26.5	0	0	---	0.00	30.075 
01:40	38.8	38.8	38.8	61	26.5	0	0	---	0.00	30.075 
01:45	38.9	38.9	38.9	62	27.0	0	0	---	0.00	30.072 
01:50	38.9	38.9	38.9	62	27.0	0	0	---	0.00	30.072 
01:55	38.8	38.8	38.8	62	26.9	0	0	---	0.00	30.072 
02:00	38.8	38.8	38.8	61	26.5	0	0	---	0.00	30.070 
02:05	38.8	38.8	38.8	61	26.5	0	0	---	0.00	30.070 
02:10	38.6	38.6	38.6	61	26.3	0	0	---	0.00	30.070 
02:15	38.5	38.5	38.5	61	26.2	0	0	---	0.00	30.065 
02:20	38.5	38.5	38.5	61	26.2	0	0	---	0.00	30.065 
02:25	38.5	38.5	38.5	63	27.0	0	0	---	0.00	30.065 
02:30	38.3	38.3	38.3	64	27.2	0	0	---	0.00	30.056 
02:35	38.0	38.0	38.0	65	27.3	0	0	---	0.00	30.056 
02:40	37.8	37.8	37.8	65	27.1	0	0	---	0.00	30.056 
02:45	37.5	37.5	37.5	65	26.8	0	0	---	0.00	30.051 
02:50	37.2	37.2	37.2	64	26.2	0	0	---	0.00	30.051 
02:55	36.9	36.9	36.9	65	26.3	0	0	---	0.00	30.051 
03:00	36.6	36.6	36.6	65	26.0	0	0	---	0.00	30.051 
03:05	36.3	36.3	36.3	65	25.7	0	0	---	0.00	30.051 
03:10	36.2	36.2	36.2	66	26.0	0	0	---	0.00	30.051 
03:15	36.0	36.0	36.0	66	25.8	0	0	---	0.00	30.045 
03:20	35.9	35.9	35.9	67	26.0	0	0	---	0.00	30.045 
03:25	35.6	35.6	35.6	67	25.7	0	0	---	0.00	30.045 
03:30	35.6	35.6	35.6	68	26.1	0	0	---	0.00	30.042 
03:35	35.3	35.3	35.3	68	25.8	0	0	---	0.00	30.042 
03:40	35.3	35.3	35.3	69	26.2	0	0	---	0.00	30.042 
03:45	35.0	35.0	35.0	69	25.9	0	0	---	0.00	30.041 
03:50	34.9	34.9	34.9	70	26.1	0	0	---	0.00	30.041 
03:55	34.9	34.9	34.9	71	26.5	0	0	---	0.00	30.041 
04:00	34.9	34.9	34.9	71	26.5	0	0	---	0.00	30.041 
04:05	35.0	35.0	35.0	71	26.6	0	0	---	0.00	30.041 
04:10	35.0	35.0	35.0	71	26.6	0	0	---	0.00	30.041 
04:15	34.9	34.9	34.9	71	26.5	0	0	---	0.00	30.039 
04:20	34.9	34.9	34.9	71	26.5	0	0	---	0.00	30.039 
04:25	34.9	34.9	34.9	72	26.8	0	0	---	0.00	30.039 
04:30	35.0	35.0	35.0	73	27.2	0	0	---	0.00	30.040 
04:35	35.0	35.0	35.0	74	27.6	0	0	---	0.00	30.040 
04:40	34.9	34.9	34.9	75	27.8	0	0	---	0.00	30.040 
04:45	34.9	34.9	34.9	75	27.8	0	0	---	0.00	30.036 
04:50	34.9	34.9	34.9	77	28.4	0	0	---	0.00	30.036 
04:55	34.9	34.9	34.9	77	28.4	0	0	---	0.00	30.036 
05:00	35.2	35.2	35.2	78	29.0	0	0	---	0.00	30.039 
05:05	35.5	35.5	35.5	78	29.3	0	0	---	0.00	30.039 
05:10	35.6	35.6	35.6	79	29.7	0	0	---	0.00	30.039 
05:15	35.8	35.8	35.8	78	29.6	0	0	---	0.00	30.037 
05:20	35.9	35.9	35.9	78	29.7	0	0	---	0.00	30.037 
05:25	36.2	36.2	36.2	77	29.7	0	0	---	0.00	30.037 
05:30	36.6	36.6	36.6	76	29.8	0	0	---	0.00	30.033 
05:35	36.9	36.9	36.9	75	29.7	0	0	---	0.00	30.033 
05:40	37.3	37.3	37.3	73	29.5	0	0	---	0.00	30.033 
05:45	37.8	37.8	37.8	72	29.6	0	0	---	0.00	30.023 
05:50	38.0	38.0	38.0	72	29.8	0	0	---	0.00	30.023 
05:55	38.3	38.3	38.3	72	30.1	0	0	---	0.00	30.023 
06:00	38.5	38.5	38.5	71	29.9	0	0	---	0.00	30.022 
06:05	38.6	38.6	38.6	71	30.0	0	0	---	0.00	30.022 
06:10	38.9	38.9	38.9	70	30.0	0	0	---	0.00	30.022 
06:15	39.2	39.2	39.2	70	30.3	0	0	---	0.00	30.022 
06:20	39.5	39.5	39.5	70	30.5	0	0	---	0.00	30.022 
06:25	39.8	39.8	39.8	71	31.2	0	0	---	0.00	30.022 
06:30	39.9	39.9	39.9	71	31.3	0	0	---	0.00	30.022 
06:35	40.1	40.1	40.1	71	31.5	0	0	---	0.00	30.022 
06:40	40.3	40.3	40.3	71	31.7	0	0	---	0.00	30.022 
06:45	40.5	40.5	40.5	71	31.8	0	0	---	0.00	30.023 
06:50	40.6	40.6	40.6	68	30.9	0	0	---	0.00	30.023 
06:55	40.8	40.8	40.8	67	30.7	0	0	---	0.00	30.023 
07:00	41.1	41.1	41.1	68	31.4	0	0	---	0.00	30.032 
07:05	41.2	41.2	41.2	69	31.8	0	0	---	0.00	30.032 
07:10	41.3	41.3	41.3	69	31.9	0	0	---	0.00	30.032 
07:15	41.5	41.5	41.5	69	32.1	0	0	---	0.00	30.037 
07:20	41.6	41.6	41.6	69	32.2	0	0	---	0.00	30.037 
07:25	41.6	41.6	41.6	69	32.2	0	0	---	0.00	30.037 
07:30	41.8	41.8	41.8	70	32.7	0	0	---	0.00	30.040 
07:35	41.9	41.9	41.9	70	32.8	0	0	---	0.00	30.040 
07:40	42.1	42.1	42.1	72	33.7	0	0	---	0.00	30.040 
07:45	42.1	42.1	42.1	73	34.1	0	0	---	0.00	30.048 
07:50	42.1	42.1	42.1	74	34.4	0	0	---	0.00	30.048 
07:55	42.1	42.1	42.1	75	34.8	0	0	---	0.00	30.048 
08:00	42.1	42.1	42.1	76	35.1	0	0	---	0.00	30.055 
08:05	42.2	42.2	42.2	77	35.5	0	0	---	0.00	30.055 
08:10	42.5	42.5	42.5	78	36.1	0	0	---	0.00	30.055 
08:15	42.6	42.6	42.6	79	36.6	0	0	---	0.00	30.063 
08:20	42.8	42.8	42.8	80	37.1	0	0	---	0.00	30.063 
08:25	42.9	42.9	42.9	81	37.5	0	1	248	0.01	30.063 
08:30	43.1	43.1	43.1	81	37.7	0	0	---	0.01	30.061 
08:35	42.9	42.9	42.9	82	37.8	0	1	248	0.01	30.061 
08:40	42.9	42.9	42.9	83	38.1	0	1	248	0.01	30.061 
08:45	42.9	42.9	42.9	84	38.4	0	0	---	0.01	30.065 
08:50	42.9	42.9	42.9	84	38.4	0	0	---	0.01	30.065 
08:55	42.9	42.9	42.9	84	38.4	0	0	---	0.00	30.065 
09:00	42.9	42.9	42.9	85	38.7	0	0	---	0.00	30.072 
09:05	42.9	42.9	42.9	86	39.0	0	0	---	0.00	30.072 
09:10	43.1	43.1	43.1	86	39.2	0	0	---	0.00	30.072 
09:15	43.3	43.3	43.3	87	39.7	0	1	248	0.00	30.065 
09:20	43.5	43.5	43.5	87	39.9	0	0	---	0.00	30.065 
09:25	43.8	43.8	43.8	88	40.5	0	0	---	0.01	30.065 
09:30	43.9	43.9	43.9	88	40.6	0	0	---	0.00	30.060 
09:35	44.1	44.1	44.1	88	40.8	0	0	---	0.00	30.060 
09:40	44.3	44.3	44.3	88	41.0	0	0	---	0.00	30.060 
09:45	44.6	44.6	44.6	89	41.6	0	0	---	0.00	30.061 
09:50	44.9	44.9	44.9	89	41.9	0	0	---	0.00	30.061 
09:55	45.2	45.2	45.2	89	42.2	0	1	248	0.01	30.061 
10:00	45.4	45.4	45.4	89	42.3	0	0	---	0.00	30.062 
10:05	45.5	45.5	45.5	89	42.4	0	0	---	0.00	30.062 
10:10	45.7	45.7	45.7	89	42.6	0	1	248	0.00	30.062 
10:15	46.0	46.0	46.0	89	42.9	0	1	248	0.00	30.063 
10:20	46.1	46.1	46.1	88	42.7	0	1	248	0.00	30.063 
10:25	46.5	46.5	46.5	88	43.1	0	3	248	0.00	30.063 
10:30	46.8	46.8	46.8	88	43.4	0	2	248	0.00	30.061 
10:35	47.0	47.0	47.0	87	43.3	0	2	248	0.00	30.061 
10:40	47.1	47.1	47.1	86	43.1	0	2	248	0.00	30.061 
10:45	47.4	47.4	47.4	86	43.4	1	2	248	0.00	30.064 
10:50	47.6	47.6	47.6	85	43.3	1	3	248	0.00	30.064 
10:55	47.6	47.6	47.6	84	43.0	1	3	90	0.00	30.064 
11:00	47.9	47.9	47.9	84	43.3	1	2	90	0.00	30.060 
11:05	48.2	48.2	48.2	83	43.3	0	1	90	0.00	30.060 
11:10	48.6	48.6	48.6	82	43.4	0	2	90	0.00	30.060 
11:15	49.2	49.2	49.2	81	43.6	0	2	90	0.00	30.066 
11:20	49.6	49.6	49.6	79	43.4	1	3	90	0.00	30.066 
11:25	50.1	50.1	50.1	77	43.2	0	2	90	0.00	30.066 
11:30	50.5	50.5	50.5	77	43.6	0	1	90	0.00	30.064 
11:35	50.8	50.8	50.8	75	43.2	0	2	90	0.00	30.064 
11:40	51.1	51.1	51.1	75	43.5	0	2	90	0.00	30.064 
11:45	51.1	51.1	51.1	71	42.0	0	5	90	0.00	30.060 
11:50	51.4	51.4	51.4	71	42.3	0	2	90	0.00	30.060 
11:55	52.0	52.0	52.0	71	42.9	0	3	90	0.00	30.060 
12:00	52.6	52.6	52.6	67	42.0	0	2	90	0.00	30.054 
12:05	52.9	52.9	52.9	64	41.1	1	3	90	0.00	30.054 
12:10	53.3	53.3	53.3	63	41.0	0	2	90	0.00	30.054 
12:15	53.8	53.8	53.8	64	41.9	0	4	90	0.00	30.056 
12:20	54.1	54.1	54.1	62	41.4	0	2	90	0.00	30.056 
12:25	54.5	54.5	54.5	61	41.3	0	2	90	0.00	30.056 
12:30	54.8	54.8	54.8	62	42.0	0	1	90	0.00	30.057 
12:35	55.0	55.0	55.0	59	40.9	0	2	90	0.00	30.057 
12:40	55.1	55.1	55.1	59	41.0	0	2	90	0.00	30.057 
12:45	55.3	55.3	55.3	59	41.2	0	1	90	0.00	30.058 
12:50	55.3	55.3	55.3	58	40.8	1	4	90	0.00	30.058 
12:55	55.6	55.6	55.6	57	40.6	0	2	90	0.00	30.058 
13:00	55.9	55.9	55.9	55	40.0	0	3	90	0.00	30.055 
13:05	56.0	56.0	56.0	54	39.6	0	1	90	0.00	30.055 
13:10	56.3	56.3	56.3	56	40.8	0	1	90	0.00	30.055 
13:15	56.6	56.6	56.6	55	40.6	0	5	90	0.00	30.048 
13:20	56.9	56.9	56.9	54	40.4	1	4	248	0.00	30.048 
13:25	57.3	57.3	57.3	53	40.3	0	2	248	0.00	30.048 
13:30	57.8	57.8	57.8	53	40.8	1	3	248	0.00	30.042 
13:35	58.1	58.1	58.1	53	41.1	0	2	248	0.00	30.042 
13:40	58.1	58.1	58.1	51	40.1	1	5	248	0.00	30.042 
13:45	58.3	58.3	58.3	54	41.7	0	2	248	0.00	30.040 
13:50	58.4	58.4	58.4	52	40.8	0	2	248	0.00	30.040 
13:55	58.6	58.6	58.6	53	41.5	0	2	248	0.00	30.040 
14:00	58.9	58.9	58.9	53	41.8	0	3	248	0.00	30.034 
14:05	59.0	59.0	59.0	53	41.9	0	1	248	0.00	30.034 
14:10	59.2	59.2	59.2	51	41.1	0	2	248	0.00	30.034 
14:15	59.3	59.3	59.3	52	41.7	0	2	248	0.00	30.030 
14:20	59.5	59.5	59.5	51	41.4	0	3	248	0.00	30.030 
14:25	59.5	59.5	59.5	50	40.8	0	3	248	0.00	30.030 
14:30	59.3	59.3	59.3	51	41.2	1	3	248	0.00	30.025 
14:35	59.2	59.2	59.2	51	41.1	0	1	248	0.00	30.025 
14:40	59.2	59.2	59.2	51	41.1	1	3	248	0.00	30.025 
14:45	59.2	59.2	59.2	52	41.6	0	2	248	0.00	30.025 
14:50	59.3	59.3	59.3	52	41.7	0	1	248	0.00	30.025 
14:55	59.6	59.6	59.6	51	41.4	0	2	248	0.00	30.025 
15:00	59.8	59.8	59.8	52	42.1	0	1	248	0.00	30.021 
15:05	59.9	59.9	59.9	50	41.2	0	2	248	0.00	30.021 
15:10	60.1	60.1	60.1	51	41.9	0	2	248	0.00	30.021 
15:15	60.2	60.2	60.2	51	42.0	0	3	248	0.00	30.023 
15:20	60.2	60.2	60.2	50	41.5	1	3	248	0.00	30.023 
15:25	60.2	60.2	60.2	51	42.0	0	2	248	0.00	30.023 
15:30	60.2	60.2	60.2	51	42.0	0	2	248	0.00	30.022 
15:35	60.4	60.4	60.4	50	41.7	0	3	248	0.00	30.022 
15:40	60.5	60.5	60.5	53	43.3	0	3	248	0.00	30.022 
15:45	60.5	60.5	60.5	50	41.8	1	3	248	0.00	30.019 
15:50	60.5	60.5	60.5	49	41.2	1	3	248	0.00	30.019 
15:55	60.4	60.4	60.4	50	41.7	0	2	248	0.00	30.019 
16:00	60.4	60.4	60.4	50	41.7	0	2	248	0.00	30.017 
16:05	60.5	60.5	60.5	52	42.8	0	1	248	0.00	30.017 
16:10	60.7	60.7	60.7	51	42.5	0	2	248	0.00	30.017 
16:15	60.7	60.7	60.7	51	42.5	0	2	248	0.00	30.011 
16:20	60.7	60.7	60.7	51	42.5	1	2	248	0.00	30.011 
16:25	60.7	60.7	60.7	51	42.5	0	2	248	0.00	30.011 
16:30	60.9	60.9	60.9	51	42.6	0	2	248	0.00	30.009 
16:35	61.0	61.0	61.0	50	42.2	0	1	248	0.00	30.009 
16:40	61.2	61.2	61.2	50	42.4	0	1	248	0.00	30.009 
16:45	61.5	61.5	61.5	50	42.7	0	1	248	0.00	30.001 
16:50	61.8	61.8	61.8	48	41.9	0	1	248	0.00	30.001 
16:55	62.1	62.1	62.1	50	43.2	0	1	248	0.00	30.001 
17:00	62.1	62.1	62.1	48	42.2	0	2	248	0.00	29.997 
17:05	62.3	62.3	62.3	49	42.9	0	3	248	0.00	29.997 
17:10	62.4	62.4	62.4	50	43.5	0	3	248	0.00	29.997 
17:15	62.3	62.3	62.3	48	42.4	1	3	248	0.00	29.991 
17:20	62.3	62.3	62.3	49	42.9	0	2	248	0.00	29.991 
17:25	62.3	62.3	62.3	48	42.4	1	2	248	0.00	29.991 
17:30	62.3	62.3	62.3	49	42.9	1	3	248	0.00	29.990 
17:35	62.3	62.3	62.3	48	42.4	0	3	248	0.00	29.990 
17:40	62.3	62.3	62.3	48	42.4	0	2	248	0.00	29.990 
17:45	62.3	62.3	62.3	49	42.9	0	3	248	0.00	29.990 
17:50	62.3	62.3	62.3	50	43.4	0	1	248	0.00	29.990 
17:55	62.3	62.3	62.3	50	43.4	0	2	248	0.00	29.990 
18:00	62.1	62.1	62.1	49	42.7	0	2	248	0.00	29.992 
18:05	61.8	61.8	61.8	50	43.0	0	4	248	0.00	29.992 
18:10	61.5	61.5	61.5	50	42.7	0	3	248	0.00	29.992 
18:15	61.2	61.2	61.2	51	42.9	0	4	68	0.00	29.994 
18:20	60.9	60.9	60.9	51	42.6	0	3	112	0.00	29.994 
18:25	60.5	60.5	60.5	52	42.8	0	2	90	0.00	29.994 
18:30	60.4	60.4	60.4	52	42.7	0	2	90	0.00	30.002 
18:35	60.2	60.2	60.2	52	42.5	0	2	90	0.00	30.002 
18:40	60.1	60.1	60.1	53	42.9	0	2	90	0.00	30.002 
18:45	60.1	60.1	60.1	52	42.4	0	2	90	0.00	30.004 
18:50	60.1	60.1	60.1	54	43.4	0	1	90	0.00	30.004 
18:55	59.8	59.8	59.8	58	45.0	1	5	68	0.00	30.004 
19:00	59.3	59.3	59.3	60	45.4	0	2	292	0.00	30.008 
19:05	58.9	58.9	58.9	62	45.9	0	3	0	0.00	30.008 
19:10	58.6	58.6	58.6	63	46.0	0	2	22	0.00	30.008 
19:15	58.3	58.3	58.3	64	46.2	0	1	22	0.00	30.016 
19:20	57.8	57.8	57.8	65	46.1	0	3	22	0.00	30.016 
19:25	57.5	57.5	57.5	66	46.2	0	2	45	0.00	30.016 
19:30	57.3	57.3	57.3	66	46.0	0	2	45	0.00	30.022 
19:35	57.0	57.0	57.0	67	46.2	0	2	45	0.00	30.022 
19:40	57.0	57.0	57.0	68	46.5	0	1	45	0.00	30.022 
19:45	56.9	56.9	56.9	68	46.4	0	2	45	0.00	30.023 
19:50	56.7	56.7	56.7	69	46.6	0	2	22	0.00	30.023 
19:55	56.7	56.7	56.7	69	46.6	0	1	22	0.00	30.023 
20:00	56.6	56.6	56.6	69	46.5	0	2	22	0.00	30.023 
20:05	56.6	56.6	56.6	70	46.9	0	0	---	0.00	30.023 
20:10	56.6	56.6	56.6	70	46.9	0	1	22	0.00	30.023 
20:15	56.5	56.5	56.5	71	47.2	0	1	22	0.00	30.020 
20:20	56.5	56.5	56.5	71	47.2	0	1	22	0.00	30.020 
20:25	56.5	56.5	56.5	72	47.6	0	1	22	0.00	30.020 
20:30	56.3	56.3	56.3	72	47.4	0	1	22	0.00	30.023 
20:35	56.3	56.3	56.3	73	47.8	0	1	22	0.00	30.023 
20:40	56.3	56.3	56.3	73	47.8	0	1	22	0.00	30.023 
20:45	56.3	56.3	56.3	73	47.8	0	1	22	0.00	30.024 
20:50	56.3	56.3	56.3	73	47.8	0	1	22	0.00	30.024 
20:55	56.3	56.3	56.3	73	47.8	0	2	22	0.00	30.024 
21:00	56.2	56.2	56.2	73	47.7	0	3	22	0.00	30.025 
21:05	56.2	56.2	56.2	74	48.0	0	2	22	0.00	30.025 
21:10	56.2	56.2	56.2	75	48.4	0	2	22	0.00	30.025 
21:15	56.2	56.2	56.2	77	49.1	0	2	22	0.00	30.025 
21:20	56.0	56.0	56.0	78	49.2	0	2	22	0.00	30.025 
21:25	56.0	56.0	56.0	79	49.6	0	3	22	0.00	30.025 
21:30	55.9	55.9	55.9	80	49.8	0	2	22	0.00	30.031 
21:35	55.7	55.7	55.7	81	50.0	0	2	22	0.00	30.031 
21:40	55.7	55.7	55.7	82	50.3	0	2	22	0.00	30.031 
21:45	55.6	55.6	55.6	83	50.5	1	3	22	0.00	30.025 
21:50	55.4	55.4	55.4	84	50.6	0	1	22	0.00	30.025 
21:55	55.3	55.3	55.3	85	50.9	0	1	22	0.00	30.025 
22:00	55.0	55.0	55.0	86	50.9	0	2	22	0.00	30.024 
22:05	54.8	54.8	54.8	87	51.0	0	3	22	0.00	30.024 
22:10	54.7	54.7	54.7	87	50.9	0	2	22	0.00	30.024 
22:15	54.4	54.4	54.4	88	50.9	0	2	22	0.00	30.024 
22:20	54.2	54.2	54.2	88	50.7	0	2	22	0.00	30.024 
22:25	54.1	54.1	54.1	89	50.9	0	3	45	0.00	30.024 
22:30	53.8	53.8	53.8	89	50.6	0	1	45	0.00	30.021 
22:35	53.6	53.6	53.6	89	50.4	0	4	68	0.00	30.021 
22:40	53.5	53.5	53.5	90	50.6	0	2	90	0.00	30.021 
22:45	53.3	53.3	53.3	90	50.4	0	2	90	0.00	30.026 
22:50	53.2	53.2	53.2	90	50.3	0	1	90	0.00	30.026 
22:55	53.1	53.1	53.1	90	50.2	0	2	90	0.00	30.026 
23:00	53.1	53.1	53.1	91	50.5	0	1	90	0.00	30.032 
23:05	52.9	52.9	52.9	91	50.3	0	1	90	0.00	30.032 
23:10	52.9	52.9	52.9	91	50.3	0	0	---	0.00	30.032 
23:15	52.9	52.9	52.9	91	50.3	0	1	90	0.00	30.031 
23:20	52.9	52.9	52.9	91	50.3	0	1	90	0.00	30.031 
23:25	52.8	52.8	52.8	91	50.2	0	1	90	0.00	30.031 
23:30	52.8	52.8	52.8	91	50.2	0	0	---	0.00	30.038 
23:35	52.8	52.8	52.8	91	50.2	0	0	---	0.00	30.038 
23:40	52.8	52.8	52.8	91	50.2	0	0	---	0.00	30.038 
23:45	52.8	52.8	52.8	91	50.2	0	0	---	0.00	30.041 
23:50	52.8	52.8	52.8	92	50.5	0	0	---	0.00	30.041 
23:55	52.8	52.8	52.8	92	50.5	0	0	---	0.00	30.041 

CoCoRaHS
IN-AL-39
A2 Web Hosting
Creative Commons License
GoDaddy
search engine by freefind advanced

loaded 2018-11-17 23:37:57 • last modified 2010-11-18 10:43:29
Privacy PolicyDisclaimer
• wx.awcolley.com is powered by PmWiki v.2002016 •
• all content (unless otherwise noted) © 2018 A W Colley